BLY203T LOWS-EGKK
Flight info
| Callsign | BLY203T |
|---|---|
| Flight time | 1h 43m |
| Altitude | 12000 |
| Route | TRAUN L856 KONIN/N0437F360 DCT AMEXO DCT BABEG DCT SUNEG L608 ULNOK DCT ADENU DCT LIRSU DCT DENUT L610 TEBRA |
| Aircraft | A320/M-SDE3FGHIRWY/LB1 |
Departure
| Time | 2026-05-04 13:23 |
|---|---|
| Airport | Salzburg Airport (LOWS) |
Arrival
| Time | 2026-05-04 15:07 |
|---|---|
| Airport | London Gatwick Airport (EGKK) |
| Time | Latitude | Longitude | Altitude | Speed | Heading |
|---|---|---|---|---|---|
| 2026-05-04 13:03 | 47.78972 | 13.00042 | 1422 ft | 0 kts | 283° |
| 2026-05-04 13:13 | 47.78969 | 13.00063 | 1422 ft | 2 kts | 281° |
| 2026-05-04 13:13 | 47.78966 | 13.00087 | 1422 ft | 2 kts | 281° |
| 2026-05-04 13:13 | 47.78963 | 13.00111 | 1422 ft | 2 kts | 280° |
| 2026-05-04 13:13 | 47.78960 | 13.00135 | 1422 ft | 2 kts | 278° |
| 2026-05-04 13:14 | 47.78957 | 13.00159 | 1422 ft | 2 kts | 276° |
| 2026-05-04 13:14 | 47.78956 | 13.00183 | 1422 ft | 2 kts | 271° |
| 2026-05-04 13:14 | 47.78956 | 13.00207 | 1422 ft | 2 kts | 269° |
| 2026-05-04 13:14 | 47.78956 | 13.00216 | 1422 ft | 0 kts | 274° |
| 2026-05-04 13:15 | 47.78956 | 13.00214 | 1422 ft | 0 kts | 274° |
| 2026-05-04 13:15 | 47.78957 | 13.00206 | 1422 ft | 0 kts | 274° |
| 2026-05-04 13:17 | 47.78967 | 13.00160 | 1422 ft | 10 kts | 302° |
| 2026-05-04 13:18 | 47.79026 | 13.00110 | 1422 ft | 10 kts | 336° |
| 2026-05-04 13:18 | 47.79098 | 13.00063 | 1422 ft | 12 kts | 336° |
| 2026-05-04 13:18 | 47.79179 | 13.00011 | 1422 ft | 13 kts | 337° |
| 2026-05-04 13:18 | 47.79267 | 12.99957 | 1422 ft | 15 kts | 338° |
| 2026-05-04 13:19 | 47.79329 | 12.99977 | 1422 ft | 10 kts | 52° |
| 2026-05-04 13:19 | 47.79350 | 13.00038 | 1422 ft | 11 kts | 65° |
| 2026-05-04 13:19 | 47.79433 | 13.00065 | 1422 ft | 12 kts | 338° |
| 2026-05-04 13:19 | 47.79472 | 13.00042 | 1422 ft | 0 kts | 337° |
| 2026-05-04 13:20 | 47.79494 | 13.00028 | 1423 ft | 13 kts | 337° |
| 2026-05-04 13:20 | 47.79596 | 12.99963 | 1422 ft | 17 kts | 337° |
| 2026-05-04 13:20 | 47.79716 | 12.99888 | 1422 ft | 20 kts | 337° |
| 2026-05-04 13:20 | 47.79844 | 12.99806 | 1422 ft | 21 kts | 337° |
| 2026-05-04 13:21 | 47.79979 | 12.99722 | 1422 ft | 20 kts | 336° |
| 2026-05-04 13:21 | 47.80107 | 12.99641 | 1422 ft | 18 kts | 337° |
| 2026-05-04 13:21 | 47.80224 | 12.99613 | 1424 ft | 16 kts | 17° |
| 2026-05-04 13:21 | 47.80287 | 12.99744 | 1421 ft | 18 kts | 88° |
| 2026-05-04 13:22 | 47.80189 | 12.99854 | 1421 ft | 24 kts | 155° |
| 2026-05-04 13:22 | 47.79816 | 13.00092 | 1422 ft | 90 kts | 157° |
| 2026-05-04 13:22 | 47.79075 | 13.00570 | 1417 ft | 140 kts | 156° |
| 2026-05-04 13:22 | 47.78404 | 13.00994 | 1421 ft | 172 kts | 156° |
| 2026-05-04 13:23 | 47.77276 | 13.01690 | 1976 ft | 173 kts | 153° |
| 2026-05-04 13:23 | 47.76406 | 13.02857 | 2513 ft | 170 kts | 116° |
| 2026-05-04 13:23 | 47.76157 | 13.04525 | 3021 ft | 167 kts | 79° |
| 2026-05-04 13:23 | 47.76718 | 13.06100 | 3247 ft | 188 kts | 39° |
| 2026-05-04 13:24 | 47.77987 | 13.06771 | 3576 ft | 209 kts | 0° |
| 2026-05-04 13:24 | 47.79370 | 13.05852 | 3841 ft | 237 kts | 313° |
| 2026-05-04 13:24 | 47.80212 | 13.03596 | 4160 ft | 261 kts | 296° |
| 2026-05-04 13:25 | 47.81894 | 12.99060 | 5913 ft | 259 kts | 302° |
| 2026-05-04 13:25 | 47.82887 | 12.96714 | 6393 ft | 274 kts | 301° |
| 2026-05-04 13:25 | 47.83889 | 12.94274 | 7136 ft | 278 kts | 299° |
| 2026-05-04 13:25 | 47.84881 | 12.91789 | 7905 ft | 280 kts | 298° |
| 2026-05-04 13:26 | 47.85871 | 12.89253 | 8690 ft | 282 kts | 297° |
| 2026-05-04 13:26 | 47.86840 | 12.86736 | 9456 ft | 284 kts | 297° |
| 2026-05-04 13:26 | 47.87822 | 12.84170 | 10187 ft | 286 kts | 296° |
| 2026-05-04 13:26 | 47.88806 | 12.81588 | 10887 ft | 288 kts | 296° |
| 2026-05-04 13:27 | 47.89797 | 12.78987 | 11559 ft | 290 kts | 296° |
| 2026-05-04 13:27 | 47.90811 | 12.76321 | 12245 ft | 293 kts | 296° |
| 2026-05-04 13:27 | 47.91820 | 12.73658 | 12889 ft | 297 kts | 296° |
| 2026-05-04 13:27 | 47.92826 | 12.71003 | 13534 ft | 299 kts | 296° |
| 2026-05-04 13:28 | 47.93871 | 12.68249 | 14133 ft | 304 kts | 296° |
| 2026-05-04 13:28 | 47.94949 | 12.65398 | 14258 ft | 324 kts | 296° |
| 2026-05-04 13:28 | 47.96081 | 12.62395 | 14385 ft | 343 kts | 295° |
| 2026-05-04 13:28 | 47.96954 | 12.59043 | 14619 ft | 350 kts | 279° |
| 2026-05-04 13:29 | 47.97141 | 12.55425 | 15089 ft | 351 kts | 263° |
| 2026-05-04 13:29 | 47.96839 | 12.51814 | 15610 ft | 353 kts | 260° |
| 2026-05-04 13:29 | 47.96504 | 12.48168 | 16143 ft | 355 kts | 260° |
| 2026-05-04 13:29 | 47.96164 | 12.44510 | 16676 ft | 358 kts | 260° |
| 2026-05-04 13:30 | 47.95818 | 12.40816 | 17197 ft | 360 kts | 259° |
| 2026-05-04 13:30 | 47.95470 | 12.37100 | 17730 ft | 363 kts | 260° |
| 2026-05-04 13:30 | 47.95122 | 12.33358 | 18255 ft | 366 kts | 260° |
| 2026-05-04 13:30 | 47.94770 | 12.29597 | 18729 ft | 368 kts | 259° |
| 2026-05-04 13:31 | 47.94408 | 12.25793 | 19197 ft | 371 kts | 259° |
| 2026-05-04 13:31 | 47.94045 | 12.21974 | 19671 ft | 373 kts | 260° |
| 2026-05-04 13:31 | 47.93680 | 12.18136 | 20145 ft | 376 kts | 260° |
| 2026-05-04 13:31 | 47.93307 | 12.14261 | 20599 ft | 378 kts | 260° |
| 2026-05-04 13:32 | 47.92928 | 12.10373 | 21025 ft | 381 kts | 260° |
| 2026-05-04 13:32 | 47.92549 | 12.06451 | 21470 ft | 383 kts | 260° |
| 2026-05-04 13:32 | 47.92168 | 12.02513 | 21896 ft | 385 kts | 260° |
| 2026-05-04 13:32 | 47.91781 | 11.98548 | 22321 ft | 388 kts | 260° |
| 2026-05-04 13:33 | 47.91389 | 11.94562 | 22733 ft | 390 kts | 260° |
| 2026-05-04 13:33 | 47.90992 | 11.90551 | 23154 ft | 392 kts | 260° |
| 2026-05-04 13:33 | 47.90587 | 11.86470 | 23581 ft | 394 kts | 260° |
| 2026-05-04 13:33 | 47.90182 | 11.82412 | 23939 ft | 396 kts | 260° |
| 2026-05-04 13:34 | 47.89775 | 11.78344 | 24295 ft | 398 kts | 260° |
| 2026-05-04 13:34 | 47.89366 | 11.74257 | 24645 ft | 400 kts | 260° |
| 2026-05-04 13:34 | 47.88958 | 11.70151 | 24997 ft | 401 kts | 260° |
| 2026-05-04 13:34 | 47.88550 | 11.66035 | 25348 ft | 403 kts | 260° |
| 2026-05-04 13:35 | 47.88139 | 11.61891 | 25704 ft | 405 kts | 260° |
| 2026-05-04 13:35 | 47.87301 | 11.53561 | 26377 ft | 408 kts | 260° |
| 2026-05-04 13:35 | 47.86876 | 11.49386 | 26706 ft | 410 kts | 260° |
| 2026-05-04 13:36 | 47.86451 | 11.45175 | 27049 ft | 411 kts | 261° |
| 2026-05-04 13:36 | 47.86320 | 11.40906 | 27369 ft | 415 kts | 271° |
| 2026-05-04 13:36 | 47.86724 | 11.36626 | 27675 ft | 421 kts | 282° |
| 2026-05-04 13:36 | 47.87684 | 11.32490 | 27998 ft | 426 kts | 292° |
| 2026-05-04 13:37 | 47.89172 | 11.28645 | 28357 ft | 431 kts | 301° |
| 2026-05-04 13:37 | 47.90833 | 11.24918 | 28743 ft | 432 kts | 300° |
| 2026-05-04 13:37 | 47.92481 | 11.21177 | 29170 ft | 432 kts | 300° |
| 2026-05-04 13:37 | 47.93586 | 11.18648 | 29497 ft | 430 kts | 300° |
| 2026-05-04 13:38 | 47.95737 | 11.13694 | 30112 ft | 429 kts | 300° |
| 2026-05-04 13:38 | 47.97352 | 11.09958 | 30502 ft | 427 kts | 300° |
| 2026-05-04 13:38 | 47.98962 | 11.06237 | 30901 ft | 426 kts | 300° |
| 2026-05-04 13:38 | 48.00595 | 11.02472 | 31283 ft | 426 kts | 300° |
| 2026-05-04 13:39 | 48.02205 | 10.98764 | 31645 ft | 425 kts | 300° |
| 2026-05-04 13:39 | 48.03810 | 10.95072 | 32038 ft | 424 kts | 300° |
| 2026-05-04 13:39 | 48.05416 | 10.91379 | 32436 ft | 422 kts | 300° |
| 2026-05-04 13:39 | 48.07009 | 10.87698 | 32835 ft | 421 kts | 300° |
| 2026-05-04 13:40 | 48.08593 | 10.84027 | 33253 ft | 420 kts | 300° |
| 2026-05-04 13:40 | 48.10175 | 10.80358 | 33679 ft | 419 kts | 300° |
| 2026-05-04 13:40 | 48.11831 | 10.76775 | 34060 ft | 419 kts | 303° |
| 2026-05-04 13:40 | 48.13575 | 10.73290 | 34389 ft | 418 kts | 304° |
| 2026-05-04 13:41 | 48.15368 | 10.69861 | 34686 ft | 418 kts | 305° |
| 2026-05-04 13:41 | 48.17179 | 10.66446 | 34959 ft | 418 kts | 305° |
| 2026-05-04 13:41 | 48.18978 | 10.63033 | 35250 ft | 417 kts | 304° |
| 2026-05-04 13:42 | 48.22519 | 10.56163 | 35718 ft | 417 kts | 304° |
| 2026-05-04 13:42 | 48.24281 | 10.52683 | 35875 ft | 419 kts | 303° |
| 2026-05-04 13:42 | 48.27829 | 10.45629 | 35987 ft | 429 kts | 303° |
| 2026-05-04 13:43 | 48.31468 | 10.38384 | 35995 ft | 441 kts | 304° |
| 2026-05-04 13:43 | 48.35210 | 10.30950 | 35986 ft | 450 kts | 303° |
| 2026-05-04 13:44 | 48.38991 | 10.23421 | 35990 ft | 452 kts | 303° |
| 2026-05-04 13:44 | 48.42779 | 10.15866 | 35989 ft | 452 kts | 303° |
| 2026-05-04 13:45 | 48.46582 | 10.08249 | 35990 ft | 452 kts | 303° |
| 2026-05-04 13:45 | 48.50352 | 10.00661 | 35990 ft | 452 kts | 303° |
| 2026-05-04 13:46 | 48.54105 | 9.93096 | 36008 ft | 453 kts | 303° |
| 2026-05-04 13:46 | 48.57894 | 9.85447 | 36002 ft | 452 kts | 303° |
| 2026-05-04 13:47 | 48.61657 | 9.77830 | 36001 ft | 453 kts | 303° |
| 2026-05-04 13:47 | 48.65409 | 9.70187 | 36000 ft | 452 kts | 303° |
| 2026-05-04 13:48 | 48.69553 | 9.62997 | 36005 ft | 457 kts | 311° |
| 2026-05-04 13:48 | 48.74077 | 9.56230 | 36016 ft | 457 kts | 311° |
| 2026-05-04 13:49 | 48.78583 | 9.49450 | 36014 ft | 456 kts | 311° |
| 2026-05-04 13:49 | 48.83112 | 9.42602 | 36008 ft | 457 kts | 311° |
| 2026-05-04 13:50 | 48.87609 | 9.35796 | 35996 ft | 456 kts | 311° |
| 2026-05-04 13:50 | 48.92106 | 9.28975 | 35996 ft | 456 kts | 311° |
| 2026-05-04 13:51 | 48.96595 | 9.22146 | 36013 ft | 456 kts | 310° |
| 2026-05-04 13:51 | 49.01073 | 9.15304 | 36006 ft | 456 kts | 310° |
| 2026-05-04 13:52 | 49.07795 | 9.05014 | 36002 ft | 456 kts | 310° |
| 2026-05-04 13:53 | 49.12276 | 8.98146 | 36000 ft | 456 kts | 310° |
| 2026-05-04 13:53 | 49.16747 | 8.91262 | 35999 ft | 457 kts | 311° |
| 2026-05-04 13:54 | 49.21048 | 8.86361 | 36021 ft | 467 kts | 328° |
| 2026-05-04 13:54 | 49.24043 | 8.84380 | 36010 ft | 473 kts | 338° |
| 2026-05-04 13:55 | 49.33477 | 8.79807 | 35997 ft | 474 kts | 338° |
| 2026-05-04 13:55 | 49.42961 | 8.75147 | 36007 ft | 475 kts | 338° |
| 2026-05-04 13:56 | 49.49226 | 8.72058 | 36011 ft | 476 kts | 338° |
| 2026-05-04 13:57 | 49.58727 | 8.67395 | 36009 ft | 476 kts | 338° |
| 2026-05-04 13:58 | 49.71162 | 8.60585 | 36010 ft | 468 kts | 325° |
| 2026-05-04 13:58 | 49.76220 | 8.54545 | 36003 ft | 457 kts | 311° |
| 2026-05-04 13:58 | 49.78536 | 8.51160 | 36000 ft | 457 kts | 311° |
| 2026-05-04 13:59 | 49.82909 | 8.44083 | 36000 ft | 450 kts | 300° |
| 2026-05-04 14:00 | 49.87124 | 8.31306 | 35999 ft | 443 kts | 290° |
| 2026-05-04 14:00 | 49.91004 | 8.18235 | 36025 ft | 443 kts | 290° |
| 2026-05-04 14:01 | 49.93580 | 8.09526 | 36008 ft | 444 kts | 290° |
| 2026-05-04 14:02 | 49.97462 | 7.96435 | 36004 ft | 445 kts | 290° |
| 2026-05-04 14:02 | 50.00043 | 7.87690 | 36001 ft | 445 kts | 290° |
| 2026-05-04 14:03 | 50.02607 | 7.78929 | 36000 ft | 445 kts | 290° |
| 2026-05-04 14:03 | 50.05165 | 7.70154 | 36014 ft | 446 kts | 290° |
| 2026-05-04 14:04 | 50.09005 | 7.56964 | 36015 ft | 447 kts | 290° |
| 2026-05-04 14:04 | 50.11560 | 7.48135 | 36029 ft | 447 kts | 289° |
| 2026-05-04 14:05 | 50.15404 | 7.34814 | 36033 ft | 447 kts | 289° |
| 2026-05-04 14:06 | 50.17949 | 7.25957 | 36037 ft | 448 kts | 289° |
| 2026-05-04 14:06 | 50.20491 | 7.17074 | 36052 ft | 448 kts | 289° |
| 2026-05-04 14:07 | 50.23020 | 7.08180 | 36050 ft | 448 kts | 289° |
| 2026-05-04 14:07 | 50.25541 | 6.99278 | 36049 ft | 448 kts | 289° |
| 2026-05-04 14:08 | 50.28058 | 6.90368 | 36058 ft | 448 kts | 289° |
| 2026-05-04 14:08 | 50.30578 | 6.81444 | 36028 ft | 449 kts | 289° |
| 2026-05-04 14:09 | 50.34341 | 6.68020 | 36015 ft | 450 kts | 289° |
| 2026-05-04 14:10 | 50.38109 | 6.54470 | 36004 ft | 450 kts | 289° |
| 2026-05-04 14:10 | 50.40607 | 6.45459 | 36027 ft | 450 kts | 289° |
| 2026-05-04 14:11 | 50.43099 | 6.36445 | 36011 ft | 451 kts | 289° |
| 2026-05-04 14:11 | 50.46829 | 6.22889 | 36014 ft | 451 kts | 288° |
| 2026-05-04 14:12 | 50.49302 | 6.13834 | 36026 ft | 451 kts | 288° |
| 2026-05-04 14:13 | 50.53003 | 6.00264 | 36038 ft | 450 kts | 288° |
| 2026-05-04 14:13 | 50.55458 | 5.91197 | 36023 ft | 451 kts | 288° |
| 2026-05-04 14:14 | 50.57906 | 5.82128 | 36011 ft | 450 kts | 288° |
| 2026-05-04 14:14 | 50.61565 | 5.68501 | 36002 ft | 451 kts | 288° |
| 2026-05-04 14:15 | 50.66423 | 5.50275 | 36013 ft | 452 kts | 288° |
| 2026-05-04 14:16 | 50.70072 | 5.36493 | 36003 ft | 453 kts | 288° |
| 2026-05-04 14:17 | 50.73705 | 5.22729 | 36002 ft | 453 kts | 288° |
| 2026-05-04 14:18 | 50.77319 | 5.08916 | 36021 ft | 455 kts | 288° |
| 2026-05-04 14:19 | 50.82123 | 4.90429 | 36000 ft | 455 kts | 288° |
| 2026-05-04 14:19 | 50.84518 | 4.81165 | 36002 ft | 455 kts | 287° |
| 2026-05-04 14:20 | 50.86907 | 4.71882 | 36004 ft | 456 kts | 287° |
| 2026-05-04 14:20 | 50.89290 | 4.62582 | 36021 ft | 456 kts | 288° |
| 2026-05-04 14:21 | 50.91607 | 4.53503 | 36001 ft | 436 kts | 287° |
| 2026-05-04 14:21 | 50.92737 | 4.49051 | 35999 ft | 434 kts | 287° |
| 2026-05-04 14:21 | 50.95004 | 4.40129 | 35998 ft | 433 kts | 287° |
| 2026-05-04 14:22 | 50.97241 | 4.31256 | 35997 ft | 433 kts | 287° |
| 2026-05-04 14:22 | 50.99471 | 4.22383 | 35996 ft | 433 kts | 287° |
| 2026-05-04 14:23 | 51.02433 | 4.10556 | 36001 ft | 433 kts | 287° |
| 2026-05-04 14:24 | 51.04652 | 4.01672 | 35997 ft | 433 kts | 287° |
| 2026-05-04 14:24 | 51.06863 | 3.92764 | 35990 ft | 433 kts | 287° |
| 2026-05-04 14:25 | 51.09061 | 3.83840 | 35990 ft | 433 kts | 287° |
| 2026-05-04 14:25 | 51.12365 | 3.70429 | 35994 ft | 434 kts | 287° |
| 2026-05-04 14:26 | 51.14573 | 3.61446 | 35987 ft | 435 kts | 287° |
| 2026-05-04 14:26 | 51.16765 | 3.52464 | 35991 ft | 435 kts | 287° |
| 2026-05-04 14:27 | 51.18940 | 3.43465 | 35991 ft | 435 kts | 287° |
| 2026-05-04 14:27 | 51.21113 | 3.34458 | 36008 ft | 435 kts | 287° |
| 2026-05-04 14:28 | 51.23277 | 3.25456 | 35062 ft | 436 kts | 286° |
| 2026-05-04 14:28 | 51.24366 | 3.20909 | 33903 ft | 441 kts | 285° |
| 2026-05-04 14:28 | 51.25461 | 3.16341 | 32825 ft | 439 kts | 285° |
| 2026-05-04 14:29 | 51.27615 | 3.07349 | 31258 ft | 424 kts | 286° |
| 2026-05-04 14:29 | 51.29656 | 2.98850 | 30385 ft | 397 kts | 285° |
| 2026-05-04 14:30 | 51.30627 | 2.94772 | 29941 ft | 388 kts | 285° |
| 2026-05-04 14:30 | 51.31569 | 2.90790 | 29518 ft | 377 kts | 285° |
| 2026-05-04 14:30 | 51.33378 | 2.83078 | 28537 ft | 362 kts | 286° |
| 2026-05-04 14:31 | 51.34256 | 2.79333 | 28045 ft | 358 kts | 286° |
| 2026-05-04 14:31 | 51.35662 | 2.71872 | 27678 ft | 348 kts | 277° |
| 2026-05-04 14:32 | 51.36582 | 2.64306 | 26976 ft | 344 kts | 277° |
| 2026-05-04 14:32 | 51.37042 | 2.60565 | 26646 ft | 342 kts | 277° |
| 2026-05-04 14:32 | 51.37503 | 2.56838 | 26307 ft | 340 kts | 277° |
| 2026-05-04 14:32 | 51.37958 | 2.53143 | 25971 ft | 337 kts | 277° |
| 2026-05-04 14:33 | 51.38408 | 2.49469 | 25625 ft | 335 kts | 277° |
| 2026-05-04 14:33 | 51.38853 | 2.45819 | 25279 ft | 333 kts | 277° |
| 2026-05-04 14:33 | 51.39304 | 2.42091 | 24926 ft | 331 kts | 277° |
| 2026-05-04 14:33 | 51.39732 | 2.38532 | 24588 ft | 329 kts | 277° |
| 2026-05-04 14:34 | 51.40164 | 2.34907 | 24229 ft | 329 kts | 277° |
| 2026-05-04 14:34 | 51.40597 | 2.31291 | 23871 ft | 328 kts | 278° |
| 2026-05-04 14:34 | 51.41027 | 2.27706 | 23493 ft | 327 kts | 278° |
| 2026-05-04 14:34 | 51.41453 | 2.24140 | 23096 ft | 325 kts | 278° |
| 2026-05-04 14:35 | 51.41884 | 2.20590 | 22733 ft | 323 kts | 278° |
| 2026-05-04 14:35 | 51.42317 | 2.17064 | 22372 ft | 322 kts | 278° |
| 2026-05-04 14:35 | 51.42749 | 2.13553 | 22010 ft | 321 kts | 278° |
| 2026-05-04 14:35 | 51.43177 | 2.10054 | 21646 ft | 319 kts | 278° |
| 2026-05-04 14:36 | 51.43603 | 2.06570 | 21289 ft | 318 kts | 278° |
| 2026-05-04 14:36 | 51.44027 | 2.03090 | 20931 ft | 317 kts | 278° |
| 2026-05-04 14:36 | 51.44445 | 1.99629 | 20570 ft | 316 kts | 278° |
| 2026-05-04 14:36 | 51.44857 | 1.96175 | 20217 ft | 315 kts | 278° |
| 2026-05-04 14:37 | 51.45264 | 1.92726 | 19859 ft | 315 kts | 278° |
| 2026-05-04 14:37 | 51.45669 | 1.89276 | 19508 ft | 314 kts | 278° |
| 2026-05-04 14:37 | 51.46071 | 1.85838 | 19156 ft | 314 kts | 278° |
| 2026-05-04 14:37 | 51.46470 | 1.82391 | 18795 ft | 314 kts | 278° |
| 2026-05-04 14:38 | 51.46869 | 1.78946 | 18438 ft | 315 kts | 279° |
| 2026-05-04 14:38 | 51.47267 | 1.75494 | 18057 ft | 315 kts | 278° |
| 2026-05-04 14:38 | 51.47661 | 1.72045 | 17685 ft | 314 kts | 278° |
| 2026-05-04 14:38 | 51.48051 | 1.68612 | 17330 ft | 312 kts | 279° |
| 2026-05-04 14:39 | 51.48443 | 1.65113 | 16971 ft | 311 kts | 276° |
| 2026-05-04 14:39 | 51.48543 | 1.61709 | 16621 ft | 307 kts | 264° |
| 2026-05-04 14:39 | 51.48212 | 1.58346 | 16278 ft | 304 kts | 253° |
| 2026-05-04 14:40 | 51.46792 | 1.51996 | 15583 ft | 302 kts | 249° |
| 2026-05-04 14:40 | 51.46063 | 1.48845 | 15244 ft | 301 kts | 249° |
| 2026-05-04 14:40 | 51.45337 | 1.45695 | 14898 ft | 300 kts | 249° |
| 2026-05-04 14:40 | 51.44614 | 1.42562 | 14562 ft | 300 kts | 249° |
| 2026-05-04 14:41 | 51.43793 | 1.39497 | 14213 ft | 299 kts | 239° |
| 2026-05-04 14:41 | 51.42589 | 1.36808 | 13904 ft | 297 kts | 226° |
| 2026-05-04 14:41 | 51.39305 | 1.32588 | 13609 ft | 305 kts | 217° |
| 2026-05-04 14:42 | 51.35913 | 1.28572 | 13280 ft | 303 kts | 217° |
| 2026-05-04 14:42 | 51.34219 | 1.26562 | 13133 ft | 304 kts | 217° |
| 2026-05-04 14:42 | 51.32523 | 1.24551 | 12965 ft | 303 kts | 217° |
| 2026-05-04 14:43 | 51.30828 | 1.22549 | 12802 ft | 303 kts | 216° |
| 2026-05-04 14:43 | 51.29139 | 1.20557 | 12641 ft | 301 kts | 216° |
| 2026-05-04 14:43 | 51.27451 | 1.18569 | 12483 ft | 301 kts | 216° |
| 2026-05-04 14:43 | 51.25761 | 1.16586 | 12324 ft | 302 kts | 216° |
| 2026-05-04 14:44 | 51.24075 | 1.14608 | 12166 ft | 300 kts | 216° |
| 2026-05-04 14:44 | 51.22395 | 1.12636 | 12010 ft | 299 kts | 216° |
| 2026-05-04 14:44 | 51.20723 | 1.10671 | 11849 ft | 299 kts | 216° |
| 2026-05-04 14:44 | 51.19050 | 1.08706 | 11699 ft | 298 kts | 216° |
| 2026-05-04 14:45 | 51.17380 | 1.06747 | 11540 ft | 298 kts | 216° |
| 2026-05-04 14:45 | 51.15709 | 1.04786 | 11386 ft | 297 kts | 217° |
| 2026-05-04 14:45 | 51.14590 | 1.03473 | 11285 ft | 296 kts | 217° |
| 2026-05-04 14:45 | 51.12632 | 1.01186 | 11097 ft | 295 kts | 216° |
| 2026-05-04 14:46 | 51.10951 | 0.99227 | 10946 ft | 295 kts | 216° |
| 2026-05-04 14:46 | 51.09317 | 0.97323 | 10791 ft | 295 kts | 216° |
| 2026-05-04 14:46 | 51.07665 | 0.95398 | 10637 ft | 294 kts | 217° |
| 2026-05-04 14:46 | 51.06120 | 0.93239 | 10443 ft | 292 kts | 229° |
| 2026-05-04 14:47 | 51.04978 | 0.90600 | 10296 ft | 291 kts | 243° |
| 2026-05-04 14:47 | 51.04115 | 0.87690 | 10142 ft | 291 kts | 245° |
| 2026-05-04 14:47 | 51.03257 | 0.84797 | 9991 ft | 287 kts | 244° |
| 2026-05-04 14:47 | 51.02406 | 0.81945 | 9834 ft | 284 kts | 244° |
| 2026-05-04 14:48 | 51.01561 | 0.79121 | 9672 ft | 283 kts | 244° |
| 2026-05-04 14:48 | 51.00717 | 0.76307 | 9531 ft | 282 kts | 244° |
| 2026-05-04 14:48 | 50.99872 | 0.73497 | 9376 ft | 282 kts | 244° |
| 2026-05-04 14:48 | 50.99027 | 0.70689 | 9227 ft | 282 kts | 244° |
| 2026-05-04 14:49 | 50.98184 | 0.67890 | 9087 ft | 281 kts | 244° |
| 2026-05-04 14:49 | 50.97342 | 0.65094 | 8923 ft | 281 kts | 244° |
| 2026-05-04 14:49 | 50.96507 | 0.62320 | 8783 ft | 279 kts | 244° |
| 2026-05-04 14:49 | 50.95670 | 0.59541 | 8632 ft | 279 kts | 244° |
| 2026-05-04 14:50 | 50.94828 | 0.56752 | 8487 ft | 279 kts | 244° |
| 2026-05-04 14:50 | 50.94266 | 0.54893 | 8388 ft | 279 kts | 244° |
| 2026-05-04 14:50 | 50.93424 | 0.52121 | 8240 ft | 278 kts | 244° |
| 2026-05-04 14:50 | 50.92312 | 0.48450 | 8043 ft | 277 kts | 245° |
| 2026-05-04 14:51 | 50.91863 | 0.46534 | 7929 ft | 276 kts | 256° |
| 2026-05-04 14:51 | 50.91636 | 0.43491 | 7801 ft | 276 kts | 272° |
| 2026-05-04 14:51 | 50.91942 | 0.40499 | 7650 ft | 276 kts | 286° |
| 2026-05-04 14:51 | 50.92483 | 0.37579 | 7498 ft | 275 kts | 286° |
| 2026-05-04 14:52 | 50.93014 | 0.34676 | 7354 ft | 273 kts | 286° |
| 2026-05-04 14:52 | 50.93535 | 0.31829 | 7223 ft | 264 kts | 286° |
| 2026-05-04 14:52 | 50.94038 | 0.29075 | 7108 ft | 256 kts | 286° |
| 2026-05-04 14:52 | 50.94517 | 0.26448 | 6996 ft | 240 kts | 286° |
| 2026-05-04 14:53 | 50.95017 | 0.24033 | 6997 ft | 223 kts | 290° |
| 2026-05-04 14:53 | 50.95551 | 0.21744 | 6939 ft | 220 kts | 291° |
| 2026-05-04 14:53 | 50.96090 | 0.19494 | 6608 ft | 216 kts | 291° |
| 2026-05-04 14:53 | 50.96611 | 0.17256 | 6457 ft | 201 kts | 285° |
| 2026-05-04 14:54 | 50.96612 | 0.15153 | 6132 ft | 194 kts | 258° |
| 2026-05-04 14:54 | 50.96231 | 0.13132 | 5702 ft | 194 kts | 252° |
| 2026-05-04 14:54 | 50.95776 | 0.11091 | 5279 ft | 194 kts | 251° |
| 2026-05-04 14:54 | 50.95319 | 0.09083 | 4845 ft | 193 kts | 251° |
| 2026-05-04 14:55 | 50.94859 | 0.07081 | 4408 ft | 193 kts | 252° |
| 2026-05-04 14:55 | 50.94728 | 0.05011 | 3989 ft | 188 kts | 284° |
| 2026-05-04 14:55 | 50.95139 | 0.03051 | 3559 ft | 188 kts | 294° |
| 2026-05-04 14:55 | 50.95649 | 0.01137 | 3119 ft | 189 kts | 295° |
| 2026-05-04 14:56 | 50.96172 | -0.00769 | 3005 ft | 189 kts | 295° |
| 2026-05-04 14:56 | 50.96704 | -0.02676 | 3001 ft | 190 kts | 295° |
| 2026-05-04 14:56 | 50.97294 | -0.04577 | 2993 ft | 190 kts | 300° |
| 2026-05-04 14:56 | 50.97965 | -0.06383 | 3006 ft | 190 kts | 302° |
| 2026-05-04 14:57 | 50.98649 | -0.08174 | 3000 ft | 190 kts | 302° |
| 2026-05-04 14:57 | 50.99334 | -0.09968 | 3002 ft | 190 kts | 302° |
| 2026-05-04 14:57 | 51.00020 | -0.11755 | 3002 ft | 190 kts | 302° |
| 2026-05-04 14:57 | 51.00710 | -0.13540 | 2999 ft | 190 kts | 302° |
| 2026-05-04 14:58 | 51.01401 | -0.15325 | 3000 ft | 190 kts | 302° |
| 2026-05-04 14:58 | 51.02061 | -0.17140 | 3005 ft | 190 kts | 293° |
| 2026-05-04 14:58 | 51.02427 | -0.19161 | 3011 ft | 191 kts | 282° |
| 2026-05-04 14:58 | 51.02653 | -0.21239 | 3009 ft | 191 kts | 279° |
| 2026-05-04 14:59 | 51.02850 | -0.23325 | 3008 ft | 191 kts | 279° |
| 2026-05-04 14:59 | 51.03048 | -0.25406 | 3010 ft | 190 kts | 279° |
| 2026-05-04 14:59 | 51.03295 | -0.29598 | 3006 ft | 191 kts | 274° |
| 2026-05-04 15:00 | 51.03378 | -0.31704 | 3002 ft | 191 kts | 274° |
| 2026-05-04 15:00 | 51.03455 | -0.33818 | 3000 ft | 192 kts | 274° |
| 2026-05-04 15:00 | 51.03535 | -0.35933 | 3005 ft | 192 kts | 274° |
| 2026-05-04 15:01 | 51.03692 | -0.40193 | 3007 ft | 192 kts | 274° |
| 2026-05-04 15:01 | 51.03771 | -0.42303 | 2994 ft | 191 kts | 274° |
| 2026-05-04 15:01 | 51.04073 | -0.44328 | 2987 ft | 189 kts | 303° |
| 2026-05-04 15:01 | 51.05042 | -0.45697 | 3005 ft | 188 kts | 330° |
| 2026-05-04 15:02 | 51.06211 | -0.46620 | 3002 ft | 187 kts | 341° |
| 2026-05-04 15:02 | 51.07478 | -0.47063 | 3006 ft | 187 kts | 354° |
| 2026-05-04 15:02 | 51.08768 | -0.46948 | 3002 ft | 187 kts | 14° |
| 2026-05-04 15:02 | 51.09959 | -0.46141 | 3003 ft | 186 kts | 34° |
| 2026-05-04 15:03 | 51.10899 | -0.44739 | 3002 ft | 186 kts | 54° |
| 2026-05-04 15:03 | 51.11480 | -0.42913 | 2964 ft | 186 kts | 74° |
| 2026-05-04 15:03 | 51.11763 | -0.40951 | 2796 ft | 179 kts | 77° |
| 2026-05-04 15:03 | 51.12029 | -0.39046 | 2572 ft | 175 kts | 77° |
| 2026-05-04 15:04 | 51.12291 | -0.37170 | 2353 ft | 172 kts | 77° |
| 2026-05-04 15:04 | 51.12542 | -0.35378 | 2130 ft | 160 kts | 78° |
| 2026-05-04 15:04 | 51.12774 | -0.33719 | 1913 ft | 149 kts | 78° |
| 2026-05-04 15:04 | 51.12999 | -0.32105 | 1724 ft | 146 kts | 78° |
| 2026-05-04 15:05 | 51.13214 | -0.30559 | 1513 ft | 144 kts | 78° |
| 2026-05-04 15:05 | 51.13434 | -0.28983 | 1328 ft | 144 kts | 78° |
| 2026-05-04 15:05 | 51.13649 | -0.27435 | 1121 ft | 143 kts | 78° |
| 2026-05-04 15:05 | 51.13854 | -0.25900 | 918 ft | 141 kts | 78° |
| 2026-05-04 15:06 | 51.14046 | -0.24365 | 710 ft | 141 kts | 78° |
| 2026-05-04 15:06 | 51.14267 | -0.22851 | 474 ft | 140 kts | 75° |
| 2026-05-04 15:06 | 51.14483 | -0.21356 | 310 ft | 138 kts | 77° |
| 2026-05-04 15:07 | 51.14844 | -0.18805 | 206 ft | 37 kts | 78° |
| 2026-05-04 15:07 | 51.14914 | -0.18567 | 211 ft | 22 kts | 52° |
| 2026-05-04 15:07 | 51.14995 | -0.18407 | 210 ft | 16 kts | 51° |
| 2026-05-04 15:07 | 51.15036 | -0.18326 | 209 ft | 0 kts | 51° |
| 2026-05-04 15:09 | 51.15046 | -0.18304 | 211 ft | 10 kts | 51° |
| 2026-05-04 15:09 | 51.15110 | -0.18166 | 209 ft | 16 kts | 71° |
| 2026-05-04 15:10 | 51.15160 | -0.17814 | 216 ft | 18 kts | 79° |
| 2026-05-04 15:10 | 51.15190 | -0.17623 | 215 ft | 19 kts | 75° |
| 2026-05-04 15:10 | 51.15292 | -0.17347 | 204 ft | 14 kts | 355° |
| 2026-05-04 15:11 | 51.15390 | -0.17381 | 207 ft | 15 kts | 346° |
| 2026-05-04 15:11 | 51.15498 | -0.17419 | 205 ft | 17 kts | 347° |
| 2026-05-04 15:11 | 51.15584 | -0.17399 | 213 ft | 13 kts | 64° |
| 2026-05-04 15:11 | 51.15613 | -0.17252 | 204 ft | 15 kts | 76° |
| 2026-05-04 15:12 | 51.15638 | -0.17089 | 206 ft | 12 kts | 71° |
| 2026-05-04 15:12 | 51.15710 | -0.17046 | 208 ft | 13 kts | 349° |
| 2026-05-04 15:12 | 51.15779 | -0.17042 | 207 ft | 9 kts | 55° |
| 2026-05-04 15:12 | 51.15804 | -0.16947 | 206 ft | 11 kts | 65° |
| 2026-05-04 15:13 | 51.15810 | -0.16923 | 213 ft | 0 kts | 68° |